createdAt,value
2023-04-09T00:02:16.308Z,7.20
2023-04-09T00:04:43.171Z,5.80
2023-04-09T00:07:09.974Z,7.07
2023-04-09T00:09:36.753Z,6.60
2023-04-09T00:12:03.602Z,7.07
2023-04-09T00:14:30.551Z,7.43
2023-04-09T00:16:57.281Z,6.57
2023-04-09T00:19:24.056Z,7.17
2023-04-09T00:21:51.039Z,6.77
2023-04-09T00:24:18.031Z,6.73
2023-04-09T00:26:44.797Z,7.90
2023-04-09T00:29:11.481Z,8.60
2023-04-09T00:31:38.374Z,8.30
2023-04-09T00:34:05.701Z,7.53
2023-04-09T00:36:32.438Z,7.53
2023-04-09T00:38:59.156Z,8.70
2023-04-09T00:41:26.035Z,9.50
2023-04-09T00:43:52.793Z,9.40
2023-04-09T00:46:19.628Z,8.33
2023-04-09T00:48:46.455Z,8.50
2023-04-09T00:51:13.177Z,6.60
2023-04-09T00:53:39.935Z,7.17
2023-04-09T00:56:07.207Z,6.87
2023-04-09T00:58:34.045Z,7.37
2023-04-09T01:01:00.824Z,6.30
2023-04-09T01:03:27.727Z,6.80
2023-04-09T01:05:54.419Z,6.70
2023-04-09T01:08:42.871Z,5.30
2023-04-09T01:11:36.592Z,6.80
2023-04-09T01:14:24.894Z,7.87
2023-04-09T01:16:58.992Z,7.50
2023-04-09T01:19:56.621Z,7.40
2023-04-09T01:23:11.879Z,5.73
2023-04-09T01:26:00.081Z,6.57
2023-04-09T01:28:34.683Z,6.20
2023-04-09T01:31:04.749Z,5.70
2023-04-09T01:33:32.472Z,6.60
2023-04-09T01:36:00.425Z,8.83
2023-04-09T01:38:27.982Z,7.03
2023-04-09T01:40:56.085Z,7.57
2023-04-09T01:43:23.386Z,5.60
2023-04-09T01:45:50.942Z,7.80
2023-04-09T01:48:18.028Z,7.33
2023-04-09T01:50:44.775Z,7.57
2023-04-09T01:53:11.512Z,6.40
2023-04-09T01:55:38.274Z,6.10
2023-04-09T01:58:05.016Z,6.70
2023-04-09T02:00:39.597Z,6.93
2023-04-09T02:03:27.274Z,6.97
2023-04-09T02:06:08.234Z,6.70
2023-04-09T02:08:35.729Z,8.23
2023-04-09T02:11:06.142Z,7.30
2023-04-09T02:13:34.803Z,6.47
2023-04-09T02:16:01.977Z,10.90
2023-04-09T02:18:30.364Z,8.93
2023-04-09T02:20:58.761Z,10.10
2023-04-09T02:23:26.144Z,9.63
2023-04-09T02:25:53.554Z,11.27
2023-04-09T02:28:20.322Z,11.13
2023-04-09T02:30:47.079Z,12.40
2023-04-09T02:33:13.905Z,9.20
2023-04-09T02:35:40.724Z,8.77
2023-04-09T02:38:13.679Z,6.10
2023-04-09T02:40:41.555Z,6.93
2023-04-09T02:43:09.219Z,8.50
2023-04-09T02:45:36.216Z,9.17
2023-04-09T02:48:03.050Z,10.50
2023-04-09T02:50:29.785Z,8.63
2023-04-09T02:52:56.617Z,9.23
2023-04-09T02:55:23.395Z,8.53
2023-04-09T02:57:50.083Z,7.80
2023-04-09T03:00:16.889Z,7.97
2023-04-09T03:02:43.710Z,8.27
2023-04-09T03:05:10.749Z,8.60
2023-04-09T03:07:37.582Z,9.33
2023-04-09T03:10:04.724Z,8.90
2023-04-09T03:12:31.412Z,8.97
2023-04-09T03:14:58.171Z,9.20
2023-04-09T03:17:27.302Z,9.57
2023-04-09T03:19:54.203Z,12.97
2023-04-09T03:22:21.048Z,13.17
2023-04-09T03:24:47.880Z,10.70
2023-04-09T03:27:14.965Z,9.80
2023-04-09T03:29:41.684Z,9.13
2023-04-09T03:32:08.452Z,9.23
2023-04-09T03:34:35.185Z,9.40
2023-04-09T03:37:01.926Z,8.87
2023-04-09T03:39:31.036Z,9.37
2023-04-09T03:41:59.052Z,9.00
2023-04-09T03:44:26.013Z,10.20
2023-04-09T03:46:52.882Z,8.83
2023-04-09T03:49:19.855Z,9.73
2023-04-09T03:51:46.597Z,9.90
2023-04-09T03:54:13.386Z,11.50
2023-04-09T03:56:40.048Z,8.20
2023-04-09T03:59:07.184Z,8.57
2023-04-09T04:01:35.014Z,8.63
2023-04-09T04:04:02.211Z,9.30
2023-04-09T04:06:29.023Z,9.30
2023-04-09T04:08:55.776Z,9.90
2023-04-09T04:11:22.522Z,9.90
2023-04-09T04:13:49.305Z,10.23
2023-04-09T04:16:16.173Z,9.70
2023-04-09T04:18:42.960Z,9.70
2023-04-09T04:21:16.452Z,8.43
2023-04-09T04:23:43.283Z,9.97
2023-04-09T04:26:10.888Z,9.70
2023-04-09T04:28:38.496Z,8.63
2023-04-09T04:31:10.009Z,8.60
2023-04-09T04:33:38.668Z,9.60
2023-04-09T04:36:09.674Z,10.33
2023-04-09T04:38:36.651Z,10.47
2023-04-09T04:41:03.670Z,8.97
2023-04-09T04:43:30.694Z,8.30
2023-04-09T04:45:57.366Z,9.03
2023-04-09T04:48:24.217Z,8.83
2023-04-09T04:51:02.021Z,8.40
2023-04-09T04:53:28.595Z,9.60
2023-04-09T04:55:55.255Z,8.77
2023-04-09T04:58:22.036Z,9.10
2023-04-09T05:00:48.710Z,7.70
2023-04-09T05:03:15.617Z,7.90
2023-04-09T05:05:42.320Z,7.73
2023-04-09T05:08:08.956Z,8.43
2023-04-09T05:10:35.627Z,7.73
2023-04-09T05:13:02.332Z,8.40
2023-04-09T05:15:28.962Z,6.80
2023-04-09T05:17:55.656Z,7.10
2023-04-09T05:20:22.297Z,8.03
2023-04-09T05:22:49.025Z,8.93
2023-04-09T05:25:16.498Z,7.90
2023-04-09T05:27:43.353Z,9.07
2023-04-09T05:30:10.394Z,9.20
2023-04-09T05:32:37.529Z,9.23
2023-04-09T05:35:04.706Z,8.93
2023-04-09T05:37:31.337Z,8.77
2023-04-09T05:39:57.955Z,9.00
2023-04-09T05:42:24.692Z,7.53
2023-04-09T05:44:51.275Z,8.97
2023-04-09T05:47:17.921Z,9.03
2023-04-09T05:49:44.710Z,9.03
2023-04-09T05:52:11.427Z,8.30
2023-04-09T05:54:38.124Z,8.40
2023-04-09T05:57:04.788Z,9.23
2023-04-09T05:59:31.500Z,8.33
2023-04-09T06:01:58.141Z,8.70
2023-04-09T06:04:24.982Z,9.43
2023-04-09T06:06:51.897Z,10.10
2023-04-09T06:09:18.485Z,10.40
2023-04-09T06:11:45.336Z,9.07
2023-04-09T06:14:16.454Z,11.90
2023-04-09T06:16:43.216Z,12.23
2023-04-09T06:19:09.890Z,12.50
2023-04-09T06:21:36.507Z,11.07
2023-04-09T06:24:03.143Z,11.13
2023-04-09T06:26:29.696Z,12.30
2023-04-09T06:28:56.360Z,11.07
2023-04-09T06:31:23.021Z,10.57
2023-04-09T06:33:49.711Z,10.40
2023-04-09T06:36:16.457Z,9.63
2023-04-09T06:38:43.082Z,10.33
2023-04-09T06:41:11.769Z,9.70
2023-04-09T06:43:38.546Z,11.30
2023-04-09T06:46:05.199Z,9.60
2023-04-09T06:48:31.921Z,11.80
2023-04-09T06:50:58.579Z,10.83
2023-04-09T06:53:25.397Z,10.77
2023-04-09T06:55:52.101Z,9.17
2023-04-09T06:58:18.765Z,9.47
2023-04-09T07:00:45.333Z,9.83
2023-04-09T07:03:12.184Z,10.83
2023-04-09T07:05:38.962Z,9.10
2023-04-09T07:08:05.787Z,9.10
2023-04-09T07:10:32.524Z,10.00
2023-04-09T07:12:59.311Z,8.90
2023-04-09T07:15:26.052Z,9.27
2023-04-09T07:17:52.946Z,8.63
2023-04-09T07:20:19.735Z,9.90
2023-04-09T07:22:46.450Z,9.60
2023-04-09T07:25:13.037Z,9.50
2023-04-09T07:27:39.793Z,9.97
2023-04-09T07:30:07.432Z,9.30
2023-04-09T07:32:34.194Z,9.50
2023-04-09T07:35:02.403Z,8.53
2023-04-09T07:37:29.116Z,9.00
2023-04-09T07:39:55.837Z,8.60
2023-04-09T07:42:22.700Z,9.07
2023-04-09T07:44:49.887Z,7.27
2023-04-09T07:47:16.698Z,9.60
2023-04-09T07:49:43.435Z,9.13
2023-04-09T07:52:10.068Z,8.70
2023-04-09T07:54:36.799Z,9.90
2023-04-09T07:57:03.754Z,9.43
2023-04-09T07:59:31.600Z,8.93
2023-04-09T08:01:58.797Z,8.47
2023-04-09T08:04:25.996Z,9.03
2023-04-09T08:06:53.728Z,9.43
2023-04-09T08:09:21.268Z,9.60
2023-04-09T08:11:48.867Z,8.57
2023-04-09T08:14:16.794Z,10.23
2023-04-09T08:16:45.778Z,9.57
2023-04-09T08:19:13.601Z,10.10
2023-04-09T08:21:43.876Z,9.57
2023-04-09T08:24:12.899Z,10.50
2023-04-09T08:26:40.776Z,10.57
2023-04-09T08:29:08.333Z,9.83
2023-04-09T08:31:36.679Z,10.00
2023-04-09T08:34:03.843Z,8.40
2023-04-09T08:36:31.859Z,9.07
2023-04-09T08:39:00.614Z,10.60
2023-04-09T08:41:31.267Z,9.73
2023-04-09T08:43:59.468Z,8.40
2023-04-09T08:46:27.364Z,8.67
2023-04-09T08:48:54.569Z,8.83
2023-04-09T08:51:23.306Z,8.90
2023-04-09T08:53:54.703Z,7.20
2023-04-09T08:56:22.349Z,7.50
2023-04-09T08:58:48.998Z,8.47
2023-04-09T09:01:26.148Z,7.00
2023-04-09T09:03:58.476Z,6.43
2023-04-09T09:06:30.194Z,8.60
2023-04-09T09:09:07.924Z,8.37
2023-04-09T09:11:36.432Z,15.73
2023-04-09T09:14:12.545Z,8.83
2023-04-09T09:16:43.395Z,10.50
2023-04-09T09:19:28.279Z,14.63
2023-04-09T09:22:03.639Z,12.30
2023-04-09T09:24:32.619Z,10.80
2023-04-09T09:26:59.337Z,11.80
2023-04-09T09:29:26.469Z,9.60
2023-04-09T09:31:54.351Z,5.97
2023-04-09T09:34:23.169Z,6.40
2023-04-09T09:36:50.085Z,5.07
2023-04-09T09:39:17.897Z,6.60
2023-04-09T09:41:46.034Z,5.50
2023-04-09T09:44:13.866Z,6.87
2023-04-09T09:46:42.454Z,6.30
2023-04-09T09:49:09.609Z,4.83
2023-04-09T09:51:37.929Z,5.90
2023-04-09T09:54:05.506Z,5.53
2023-04-09T09:56:35.770Z,5.17
2023-04-09T09:59:17.584Z,5.00
2023-04-09T10:01:46.132Z,5.00
2023-04-09T10:04:14.807Z,4.50
2023-04-09T10:06:45.501Z,5.47
2023-04-09T10:09:13.167Z,5.10
2023-04-09T10:11:42.611Z,5.50
2023-04-09T10:14:09.905Z,4.73
2023-04-09T10:16:36.666Z,4.60
2023-04-09T10:19:03.632Z,4.50
2023-04-09T10:21:36.752Z,5.43
2023-04-09T10:24:06.261Z,4.93
2023-04-09T10:26:37.006Z,4.73
2023-04-09T10:29:14.786Z,5.47
2023-04-09T10:31:54.349Z,4.60
2023-04-09T10:34:26.972Z,5.70
2023-04-09T10:36:56.423Z,6.57
2023-04-09T10:39:32.145Z,6.43
2023-04-09T10:42:00.630Z,6.57
2023-04-09T10:44:28.841Z,5.03
2023-04-09T10:46:56.150Z,5.17
2023-04-09T10:49:27.204Z,5.83
2023-04-09T10:52:04.669Z,5.57
2023-04-09T10:54:34.476Z,8.23
2023-04-09T10:57:07.281Z,9.60
2023-04-09T10:59:46.597Z,8.13
2023-04-09T11:02:22.506Z,9.37
2023-04-09T11:05:20.976Z,7.13
2023-04-09T11:07:53.617Z,5.07
2023-04-09T11:10:21.698Z,5.30
2023-04-09T11:12:48.880Z,5.23
2023-04-09T11:15:17.813Z,5.90
2023-04-09T11:17:45.091Z,5.27
2023-04-09T11:20:13.594Z,4.57
2023-04-09T11:22:40.605Z,5.00
2023-04-09T11:25:07.498Z,5.90
2023-04-09T11:30:11.252Z,4.80
2023-04-09T11:32:38.004Z,4.87
2023-04-09T11:35:05.471Z,4.80
2023-04-09T11:37:32.196Z,5.97
2023-04-09T11:39:59.271Z,5.47
2023-04-09T11:42:26.100Z,4.87
2023-04-09T11:44:53.162Z,5.37
2023-04-09T11:47:20.040Z,5.50
2023-04-09T11:49:47.396Z,5.30
2023-04-09T11:52:16.743Z,5.37
2023-04-09T11:54:49.395Z,5.20
2023-04-09T11:57:16.387Z,4.70
2023-04-09T11:59:43.396Z,4.97
2023-04-09T12:02:10.455Z,5.20
2023-04-09T12:04:37.251Z,4.93
2023-04-09T12:07:08.813Z,7.10
2023-04-09T12:09:47.907Z,4.53
2023-04-09T12:12:19.259Z,5.27
2023-04-09T12:14:47.572Z,4.67
2023-04-09T12:17:14.344Z,5.70
2023-04-09T12:19:41.039Z,4.70
2023-04-09T12:22:07.827Z,5.17
2023-04-09T12:24:34.577Z,5.57
2023-04-09T12:27:01.732Z,5.67
2023-04-09T12:29:30.018Z,4.57
2023-04-09T12:31:56.838Z,4.57
2023-04-09T12:34:23.595Z,5.00
2023-04-09T12:36:50.299Z,5.20
2023-04-09T12:39:16.979Z,5.53
2023-04-09T12:41:44.507Z,4.87
2023-04-09T12:44:11.202Z,5.83
2023-04-09T12:46:38.093Z,4.33
2023-04-09T12:49:05.660Z,6.80
2023-04-09T12:51:32.879Z,6.77
2023-04-09T12:53:59.624Z,6.17
2023-04-09T12:56:27.024Z,13.97
2023-04-09T12:58:55.155Z,6.20
2023-04-09T13:01:22.005Z,5.23
2023-04-09T13:03:49.035Z,4.80
2023-04-09T13:06:15.960Z,5.03
2023-04-09T13:08:42.606Z,5.33
2023-04-09T13:11:09.182Z,4.73
2023-04-09T13:13:35.917Z,5.60
2023-04-09T13:16:02.580Z,4.13
2023-04-09T13:18:29.278Z,3.67
2023-04-09T13:20:56.249Z,4.07
2023-04-09T13:23:22.956Z,4.23
2023-04-09T13:25:49.732Z,3.67
2023-04-09T13:28:17.032Z,5.30
2023-04-09T13:30:45.085Z,3.70
2023-04-09T13:33:12.025Z,5.77
2023-04-09T13:35:38.951Z,4.67
2023-04-09T13:38:05.829Z,5.40
2023-04-09T13:40:32.632Z,4.40
2023-04-09T13:42:59.319Z,5.50
2023-04-09T13:45:26.341Z,4.90
2023-04-09T13:47:53.122Z,6.00
2023-04-09T13:50:19.933Z,4.27
2023-04-09T13:52:46.705Z,6.60
2023-04-09T13:55:13.565Z,6.00
2023-04-09T13:57:40.335Z,4.57
2023-04-09T14:00:08.332Z,5.00
2023-04-09T14:02:35.049Z,5.53
2023-04-09T14:05:03.747Z,5.17
2023-04-09T14:07:30.999Z,6.00
2023-04-09T14:09:58.074Z,5.70
2023-04-09T14:12:24.832Z,5.70
2023-04-09T14:14:52.085Z,4.90
2023-04-09T14:17:18.736Z,4.83
2023-04-09T14:19:45.445Z,5.97
2023-04-09T14:22:12.658Z,4.40
2023-04-09T14:24:42.421Z,6.23
2023-04-09T14:27:09.495Z,6.27
2023-04-09T14:29:36.689Z,5.10
2023-04-09T14:32:03.458Z,8.27
2023-04-09T14:34:31.502Z,11.20
2023-04-09T14:36:58.301Z,4.23
2023-04-09T14:39:25.348Z,5.70
2023-04-09T14:41:52.563Z,5.27
2023-04-09T14:44:19.366Z,6.10
2023-04-09T14:46:46.162Z,4.80
2023-04-09T14:49:12.971Z,4.10
2023-04-09T14:51:39.677Z,5.10
2023-04-09T14:54:06.884Z,6.13
2023-04-09T14:56:33.667Z,5.23
2023-04-09T14:59:00.700Z,4.80
2023-04-09T15:01:28.186Z,6.60
2023-04-09T15:03:55.377Z,5.73
2023-04-09T15:06:22.367Z,5.03
2023-04-09T15:08:49.150Z,4.27
2023-04-09T15:11:16.887Z,5.20
2023-04-09T15:13:43.775Z,4.63
2023-04-09T15:16:10.503Z,5.03
2023-04-09T15:18:37.630Z,4.90
2023-04-09T15:21:04.546Z,5.00
2023-04-09T15:23:31.259Z,4.97
2023-04-09T15:25:57.976Z,4.37
2023-04-09T15:28:24.665Z,4.30
2023-04-09T15:30:51.495Z,5.37
2023-04-09T15:33:18.211Z,5.00
2023-04-09T15:35:45.020Z,5.70
2023-04-09T15:38:12.000Z,5.20
2023-04-09T15:40:40.905Z,5.30
2023-04-09T15:43:07.594Z,5.83
2023-04-09T15:45:34.346Z,4.30
2023-04-09T15:48:01.690Z,4.87
2023-04-09T15:50:28.455Z,5.00
2023-04-09T15:52:56.241Z,5.00
2023-04-09T15:55:26.838Z,5.10
2023-04-09T15:57:55.156Z,5.70
2023-04-09T16:00:22.336Z,4.83
2023-04-09T16:02:49.006Z,5.07
2023-04-09T16:05:16.034Z,5.60
2023-04-09T16:07:42.887Z,5.23
2023-04-09T16:10:09.986Z,4.80
2023-04-09T16:12:36.712Z,5.07
2023-04-09T16:15:03.569Z,5.40
2023-04-09T16:17:30.969Z,4.20
2023-04-09T16:19:57.871Z,4.53
2023-04-09T16:22:24.562Z,4.93
2023-04-09T16:24:51.330Z,4.47
2023-04-09T16:27:18.042Z,4.57
2023-04-09T16:29:44.616Z,3.70
2023-04-09T16:32:11.458Z,4.27
2023-04-09T16:34:38.325Z,6.83
2023-04-09T16:37:05.040Z,8.03
2023-04-09T16:39:31.775Z,14.73
2023-04-09T16:41:58.580Z,6.70
2023-04-09T16:44:26.015Z,6.13
2023-04-09T16:46:52.677Z,5.63
2023-04-09T16:49:19.429Z,6.40
2023-04-09T16:51:46.329Z,6.80
2023-04-09T16:54:13.199Z,5.80
2023-04-09T16:56:40.040Z,6.73
2023-04-09T16:59:06.827Z,5.43
2023-04-09T17:01:33.492Z,5.80
2023-04-09T17:04:02.209Z,6.23
2023-04-09T17:06:29.116Z,6.27
2023-04-09T17:08:55.813Z,6.60
2023-04-09T17:11:23.724Z,6.63
2023-04-09T17:13:50.484Z,5.63
2023-04-09T17:16:18.427Z,5.60
2023-04-09T17:18:45.516Z,8.50
2023-04-09T17:21:12.702Z,7.30
2023-04-09T17:23:39.411Z,5.87
2023-04-09T17:26:06.090Z,6.40
2023-04-09T17:28:32.825Z,7.20
2023-04-09T17:30:59.597Z,6.70
2023-04-09T17:33:26.679Z,6.60
2023-04-09T17:35:53.736Z,6.53
2023-04-09T17:38:25.163Z,6.00
2023-04-09T17:40:53.366Z,6.07
2023-04-09T17:43:20.076Z,6.80
2023-04-09T17:45:46.815Z,6.73
2023-04-09T17:48:13.669Z,6.13
2023-04-09T17:50:40.780Z,6.97
2023-04-09T17:53:07.674Z,6.40
2023-04-09T17:55:34.446Z,6.80
2023-04-09T17:58:01.490Z,6.40
2023-04-09T18:00:28.213Z,6.87
2023-04-09T18:02:55.293Z,9.40
2023-04-09T18:05:23.091Z,7.57
2023-04-09T18:07:49.984Z,6.40
2023-04-09T18:10:16.794Z,5.23
2023-04-09T18:12:43.516Z,6.23
2023-04-09T18:15:11.059Z,5.30
2023-04-09T18:17:37.793Z,6.17
2023-04-09T18:20:05.004Z,7.13
2023-04-09T18:22:31.866Z,6.43
2023-04-09T18:24:58.586Z,11.10
2023-04-09T18:27:25.530Z,16.30
2023-04-09T18:29:52.304Z,16.87
2023-04-09T18:32:19.862Z,13.83
2023-04-09T18:34:47.742Z,12.27
2023-04-09T18:37:15.480Z,8.30
2023-04-09T18:39:42.174Z,7.27
2023-04-09T18:42:08.879Z,8.60
2023-04-09T18:44:37.544Z,7.63
2023-04-09T18:47:06.014Z,7.70
2023-04-09T18:49:33.344Z,7.03
2023-04-09T18:52:00.102Z,7.33
2023-04-09T18:54:26.955Z,6.17
2023-04-09T18:56:53.743Z,6.37
2023-04-09T18:59:20.507Z,5.53
2023-04-09T19:01:47.332Z,7.43
2023-04-09T19:04:14.195Z,6.53
2023-04-09T19:06:41.042Z,7.33
2023-04-09T19:09:07.842Z,5.40
2023-04-09T19:11:34.711Z,5.67
2023-04-09T19:14:02.263Z,6.10
2023-04-09T19:16:29.042Z,5.47
2023-04-09T19:18:56.834Z,6.27
2023-04-09T19:21:23.667Z,4.57
2023-04-09T19:23:50.330Z,6.30
2023-04-09T19:26:18.316Z,6.40
2023-04-09T19:28:45.094Z,4.77
2023-04-09T19:31:14.616Z,7.10
2023-04-09T19:33:41.343Z,7.10
2023-04-09T19:36:08.347Z,7.30
2023-04-09T19:38:34.984Z,8.50
2023-04-09T19:41:01.659Z,8.40
2023-04-09T19:43:28.297Z,7.03
2023-04-09T19:45:54.916Z,6.60
2023-04-09T19:48:21.714Z,7.20
2023-04-09T19:50:48.975Z,6.77
2023-04-09T19:53:15.627Z,7.33
2023-04-09T19:55:42.281Z,5.57
2023-04-09T19:58:08.957Z,5.70
2023-04-09T20:00:35.628Z,7.47
2023-04-09T20:03:03.244Z,6.23
2023-04-09T20:05:30.263Z,6.63
2023-04-09T20:07:56.851Z,5.50
2023-04-09T20:10:23.594Z,7.57
2023-04-09T20:12:50.781Z,7.20
2023-04-09T20:15:20.000Z,6.77
2023-04-09T20:17:50.826Z,6.97
2023-04-09T20:20:20.781Z,5.87
2023-04-09T20:22:55.654Z,5.53
2023-04-09T20:25:23.059Z,6.20
2023-04-09T20:27:49.701Z,6.23
2023-04-09T20:30:17.055Z,6.63
2023-04-09T20:32:43.863Z,6.10
2023-04-09T20:35:12.837Z,7.57
2023-04-09T20:37:39.441Z,7.27
2023-04-09T20:40:06.871Z,7.87
2023-04-09T20:42:33.586Z,8.03
2023-04-09T20:45:01.829Z,8.60
2023-04-09T20:47:28.850Z,8.13
2023-04-09T20:50:01.146Z,8.00
2023-04-09T20:52:31.561Z,8.07
2023-04-09T20:54:58.286Z,7.00
2023-04-09T20:57:24.995Z,8.33
2023-04-09T20:59:53.016Z,8.53
2023-04-09T21:02:20.280Z,6.90
2023-04-09T21:04:47.191Z,7.40
2023-04-09T21:07:14.863Z,6.00
2023-04-09T21:09:41.521Z,7.87
2023-04-09T21:12:08.219Z,6.50
2023-04-09T21:14:34.824Z,6.80
2023-04-09T21:17:01.485Z,6.53
2023-04-09T21:19:28.244Z,7.27
2023-04-09T21:21:54.873Z,7.40
2023-04-09T21:24:21.560Z,7.00
2023-04-09T21:26:51.260Z,7.80
2023-04-09T21:29:20.720Z,8.10
2023-04-09T21:31:48.372Z,7.47
2023-04-09T21:34:15.588Z,9.20
2023-04-09T21:36:42.314Z,8.50
2023-04-09T21:39:08.858Z,9.23
2023-04-09T21:41:35.542Z,8.20
2023-04-09T21:44:08.080Z,9.00
2023-04-09T21:46:36.747Z,8.80
2023-04-09T21:49:04.228Z,8.97
2023-04-09T21:51:31.470Z,8.90
2023-04-09T21:54:09.025Z,8.47
2023-04-09T21:56:36.092Z,8.20
2023-04-09T21:59:03.360Z,9.40
2023-04-09T22:01:34.664Z,6.87
2023-04-09T22:04:02.171Z,6.37
2023-04-09T22:06:29.497Z,7.77
2023-04-09T22:08:58.199Z,6.70
2023-04-09T22:11:27.537Z,6.73
2023-04-09T22:13:55.912Z,7.07
2023-04-09T22:16:22.736Z,8.47
2023-04-09T22:18:49.314Z,7.40
2023-04-09T22:21:16.581Z,7.60
2023-04-09T22:23:43.784Z,7.17
2023-04-09T22:26:10.867Z,8.17
2023-04-09T22:28:38.577Z,7.37
2023-04-09T22:31:06.025Z,7.30
2023-04-09T22:33:32.772Z,7.20
2023-04-09T22:35:59.575Z,7.27
2023-04-09T22:38:26.570Z,6.80
2023-04-09T22:40:53.310Z,6.53
2023-04-09T22:43:19.969Z,8.17
2023-04-09T22:45:51.554Z,7.57
2023-04-09T22:48:18.584Z,8.13
2023-04-09T22:50:46.011Z,7.40
2023-04-09T22:53:13.038Z,7.67
2023-04-09T22:55:39.698Z,7.40
2023-04-09T22:58:06.307Z,7.70
2023-04-09T23:00:33.051Z,7.97
2023-04-09T23:03:00.002Z,7.37
2023-04-09T23:05:26.836Z,7.83
2023-04-09T23:07:53.560Z,9.43
2023-04-09T23:10:20.489Z,9.50
2023-04-09T23:12:47.235Z,8.50
2023-04-09T23:15:13.967Z,9.17
2023-04-09T23:17:41.754Z,8.83
2023-04-09T23:20:11.405Z,8.27
2023-04-09T23:22:38.218Z,8.30
2023-04-09T23:25:05.227Z,9.17
2023-04-09T23:27:31.903Z,7.50
2023-04-09T23:29:58.780Z,7.70
2023-04-09T23:32:25.579Z,6.63
2023-04-09T23:34:52.300Z,8.20
2023-04-09T23:37:19.265Z,7.20
2023-04-09T23:39:49.103Z,7.80
2023-04-09T23:42:15.756Z,5.90
2023-04-09T23:44:43.974Z,6.27
2023-04-09T23:47:11.285Z,5.97
2023-04-09T23:49:38.133Z,6.00
2023-04-09T23:52:05.069Z,9.30
2023-04-09T23:54:32.739Z,7.53
2023-04-09T23:56:59.813Z,8.50
2023-04-09T23:59:26.502Z,7.30
